• Join FlightAware (Why Join?)
  • Login
  • US Flag 
02:33PM EDT


 

Airport Tracker/Info


-or-


 

Live Flight TrackerFlight Track Log ✈ AWE1092 ✈ 18-Jul-2013 ✈ KPHL - KRDU

Flight Track Log - Related Links

Times and Time Zones

All times are in EDT time to prevent confusion due to time zone crossing. See the AWE1092 flight status page for this flight to view local times or setup timezone preferences in your user account.

Time Position Orientation Groundspeed Altitude Reporting Facility
EDT Latitude Longitude Course Direction KTS MPH feet Rate Location/Type
09:42AM 39.8667 -75.2667 185° South 180 207 700  Level Philadelphia TRACON
09:44AM 39.7833 -75.3500 218° Southwest 249 287 4,000 2,520 Climbing Philadelphia TRACON
09:45AM 39.6046 -75.3000 180° South  Level FlightAware Approximate
09:46AM 39.5132 -75.3140 189° South  Level FlightAware Approximate
09:47AM 39.4229 -75.3345 185° South  Level FlightAware Approximate
09:47AM 39.6092 -75.3894 190° South 293 337 10,900  Level Washington Center
09:48AM 39.3311 -75.3447 185° South  Level FlightAware Approximate
09:48AM 39.5072 -75.3844 178° South 336 387 13,500  Level Washington Center
09:48AM 39.4008 -75.3847 180° South 366 421 15,900 1,260 Climbing Washington Center
09:50AM 39.2925 -75.3825 179° South 386 444 16,000 780 Climbing Washington Center
09:51AM 39.1842 -75.3828 180° South 392 451 17,500 1,740 Climbing Washington Center
09:52AM 39.0736 -75.3992 187° South 392 451 19,500 1,200 Climbing Washington Center
09:53AM 38.9672 -75.4208 189° South 397 457 20,000 720 Climbing Washington Center
09:54AM 38.8506 -75.4344 185° South 408 470 21,000 1,620 Climbing Washington Center
09:54AM 38.7361 -75.4506 186° South 413 475 23,300 2,040 Climbing Washington Center
09:55AM 38.6214 -75.4775 190° South 418 481 25,100 1,320 Climbing Washington Center
09:56AM 38.4983 -75.4856 183° South 430 495 26,000 420 Climbing Washington Center
09:58AM 38.3775 -75.5069 188° South 436 502 26,000  Level Washington Center
09:59AM 38.2586 -75.5864 208° Southwest 445 512 26,000  Level Washington Center
10:00AM 38.1628 -75.6789 217° Southwest 439 505 26,000  Level Washington Center
10:00AM 38.0625 -75.7658 214° Southwest 439 505 26,000  Level Washington Center
10:02AM 37.9644 -75.8603 217° Southwest 444 511 26,000  Level Washington Center
10:03AM 37.8639 -75.9522 216° Southwest 454 522 26,000  Level Washington Center
10:04AM 37.7656 -76.0461 217° Southwest 454 522 26,000  Level Washington Center
10:05AM 37.6672 -76.1350 216° Southwest 454 522 26,000 -120 Level Washington Center
10:06AM 37.5647 -76.2206 213° Southwest 449 517 25,800 -600 Descending Washington Center
10:07AM 37.4661 -76.3114 216° Southwest 449 517 24,800 -960 Descending Washington Center
10:07AM 37.3675 -76.3967 215° Southwest 449 517 24,000 -420 Descending Washington Center
10:09AM 37.2708 -76.4869 217° Southwest 444 511 24,000 -480 Level Washington Center
10:10AM 37.1928 -76.5983 229° Southwest 437 503 23,100 -900 Descending Washington Center
10:11AM 37.1208 -76.7144 232° Southwest 430 495 22,300 -960 Descending Washington Center
10:12AM 37.0489 -76.8253 231° Southwest 425 489 21,300 -1,020 Descending Washington Center
10:13AM 36.9789 -76.9361 232° Southwest 419 482 20,300 -660 Descending Washington Center
10:14AM 36.9067 -77.0439 230° Southwest 414 476 20,000 -180 Descending Washington Center
10:14AM 36.8364 -77.1517 231° Southwest 414 476 20,000  Level Washington Center
10:16AM 36.7661 -77.2592 231° Southwest 414 476 20,000 -300 Level Washington Center
10:17AM 36.6958 -77.3714 232° Southwest 414 476 19,400 -840 Descending Washington Center
10:18AM 36.6275 -77.4733 230° Southwest 408 470 18,400 -1,020 Descending Washington Center
10:18AM 36.5569 -77.5803 231° Southwest 408 470 17,400 -1,020 Descending Washington Center
10:20AM 36.4883 -77.6819 230° Southwest 403 464 16,400 -840 Descending Washington Center
10:21AM 36.4219 -77.7833 231° Southwest 397 457 15,800 -300 Descending Washington Center
10:22AM 36.3594 -77.8875 233° Southwest 392 451 15,800 -900 Level Washington Center
10:23AM 36.2886 -77.9911 230° Southwest 392 451 14,100 -1,920 Descending Washington Center
10:23AM 36.2261 -78.0869 231° Southwest 387 445 12,100 -1,980 Descending Washington Center
10:24AM 36.1656 -78.1803 231° Southwest 366 421 10,300 -1,560 Descending Washington Center
10:26AM 36.1242 -78.2639 239° Southwest 334 384 9,000 -1,560 Descending Washington Center
10:27AM 36.1114 -78.3689 261° West 297 342 7,200 -1,320 Descending Washington Center
10:28AM 36.1133 -78.4614 272° West 275 316 6,400 -780 Descending Washington Center
10:29AM 36.1011 -78.5303 258° West 247 284 5,700 -900 Descending Washington Center
10:29AM 36.0583 -78.5775 222° Southwest 210 242 4,700 -1,020 Descending Washington Center
10:30AM 36.0347 -78.6025 221° Southwest 198 228 4,200 -540 Descending Washington Center
10:31AM 36.0089 -78.6372 227° Southwest 174 200 4,000 -600 Descending Washington Center
10:32AM 35.9917 -78.6597 227° Southwest 191 220 3,400 -960 Descending Washington Center